createdAt,value
2019-02-18T00:01:30.354Z,99073.47
2019-02-18T00:04:01.574Z,98994.47
2019-02-18T00:06:31.269Z,99065.47
2019-02-18T00:09:00.556Z,99058.25
2019-02-18T00:11:29.698Z,99058.25
2019-02-18T00:14:06.377Z,99068.38
2019-02-18T00:16:36.280Z,99073.19
2019-02-18T00:19:06.273Z,99068.88
2019-02-18T00:21:37.245Z,99069.47
2019-02-18T00:24:07.305Z,99063.29
2019-02-18T00:26:38.214Z,99060.28
2019-02-18T00:29:08.308Z,99060.28
2019-02-18T00:31:39.046Z,99075.52
2019-02-18T00:34:08.990Z,99069.19
2019-02-18T00:36:38.877Z,99072.61
2019-02-18T00:39:08.818Z,99077.95
2019-02-18T00:41:39.103Z,99072.59
2019-02-18T00:44:09.406Z,99081.13
2019-02-18T00:46:41.417Z,99077.63
2019-02-18T00:49:11.887Z,99084.02
2019-02-18T00:51:43.897Z,99078.92
2019-02-18T00:54:13.765Z,99085.03
2019-02-18T00:56:43.362Z,99081.33
2019-02-18T00:59:13.243Z,99090.86
2019-02-18T01:01:43.301Z,99076.44
2019-02-18T01:04:13.247Z,99083.90
2019-02-18T01:06:46.297Z,99080.53
2019-02-18T01:09:15.892Z,99078.66
2019-02-18T01:11:46.737Z,99079.95
2019-02-18T01:14:16.918Z,99077.50
2019-02-18T01:16:46.586Z,99080.70
2019-02-18T01:19:15.733Z,99068.44
2019-02-18T01:21:45.424Z,99078.84
2019-02-18T01:24:14.432Z,99080.43
2019-02-18T01:26:44.064Z,99080.10
2019-02-18T01:29:12.737Z,99077.75
2019-02-18T01:31:41.446Z,99075.12
2019-02-18T01:34:10.902Z,99081.77
2019-02-18T01:36:41.124Z,99073.17
2019-02-18T01:39:10.338Z,99073.17
2019-02-18T01:41:39.615Z,99078.98
2019-02-18T01:44:08.915Z,99078.98
2019-02-18T01:46:38.200Z,99077.42
2019-02-18T01:49:06.924Z,99073.67
2019-02-18T01:51:36.809Z,99073.69
2019-02-18T01:54:06.197Z,99075.34
2019-02-18T01:56:35.760Z,99070.23
2019-02-18T01:59:05.328Z,99066.47
2019-02-18T02:01:34.137Z,99065.92
2019-02-18T02:04:02.976Z,99056.08
2019-02-18T02:06:32.282Z,99055.81
2019-02-18T02:09:01.431Z,99056.02
2019-02-18T02:11:30.978Z,99058.68
2019-02-18T02:13:59.708Z,99054.75
2019-02-18T02:16:28.091Z,99057.15
2019-02-18T02:18:56.792Z,99061.31
2019-02-18T02:21:25.239Z,99042.06
2019-02-18T02:23:53.136Z,99049.32
2019-02-18T02:26:21.965Z,99045.59
2019-02-18T02:28:50.432Z,99048.25
2019-02-18T02:31:19.288Z,99050.41
2019-02-18T02:33:48.791Z,99051.15
2019-02-18T02:36:18.491Z,99052.48
2019-02-18T02:38:48.787Z,99049.23
2019-02-18T02:41:17.903Z,99049.48
2019-02-18T02:43:46.848Z,99048.35
2019-02-18T02:46:16.905Z,99049.95
2019-02-18T02:48:48.014Z,99045.75
2019-02-18T02:51:16.411Z,99044.62
2019-02-18T02:53:44.521Z,99052.84
2019-02-18T02:56:13.275Z,99048.13
2019-02-18T02:59:00.433Z,99050.20
2019-02-18T03:01:28.562Z,99043.00
2019-02-18T03:03:56.502Z,99046.32
2019-02-18T03:06:24.319Z,99042.56
2019-02-18T03:08:52.139Z,99040.29
2019-02-18T03:11:20.835Z,99040.29
2019-02-18T03:13:49.310Z,99043.75
2019-02-18T03:16:18.098Z,99039.26
2019-02-18T03:18:46.634Z,99030.45
2019-02-18T03:21:15.570Z,99035.17
2019-02-18T03:23:44.340Z,99029.35
2019-02-18T03:26:12.783Z,99039.51
2019-02-18T03:29:48.601Z,99031.72
2019-02-18T03:34:57.597Z,99024.38
2019-02-18T03:37:25.166Z,99024.77
2019-02-18T03:39:52.711Z,99027.68
2019-02-18T03:42:20.081Z,99034.70
2019-02-18T03:44:48.040Z,99039.45
2019-02-18T03:47:15.800Z,99035.35
2019-02-18T03:49:44.489Z,99035.17
2019-02-18T03:52:12.673Z,99026.81
2019-02-18T03:54:40.838Z,99040.77
2019-02-18T03:57:08.155Z,99040.50
2019-02-18T03:59:35.395Z,99039.98
2019-02-18T04:02:02.614Z,99032.00
2019-02-18T04:04:32.106Z,99037.52
2019-02-18T04:06:59.852Z,99035.67
2019-02-18T04:09:28.370Z,99033.52
2019-02-18T04:11:56.187Z,99035.59
2019-02-18T04:14:24.370Z,99039.33
2019-02-18T04:16:52.434Z,99035.92
2019-02-18T04:19:20.097Z,99039.08
2019-02-18T04:21:48.363Z,99043.87
2019-02-18T04:24:16.256Z,99043.09
2019-02-18T04:26:44.097Z,99040.88
2019-02-18T04:29:12.181Z,99050.56
2019-02-18T04:31:39.459Z,99056.39
2019-02-18T04:34:06.689Z,99049.50
2019-02-18T04:36:33.932Z,99046.08
2019-02-18T04:39:01.223Z,99050.22
2019-02-18T04:41:28.468Z,99048.66
2019-02-18T04:43:56.088Z,99052.84
2019-02-18T04:46:23.997Z,99049.39
2019-02-18T04:48:52.144Z,99048.66
2019-02-18T04:51:19.490Z,99048.13
2019-02-18T04:53:47.051Z,99044.90
2019-02-18T04:56:14.282Z,99049.95
2019-02-18T04:58:42.101Z,99040.91
2019-02-18T05:01:10.054Z,99041.13
2019-02-18T05:03:38.362Z,99041.97
2019-02-18T05:06:06.545Z,99042.23
2019-02-18T05:08:34.664Z,99041.72
2019-02-18T05:11:03.009Z,99033.70
2019-02-18T05:13:30.511Z,99037.95
2019-02-18T05:15:58.130Z,99045.96
2019-02-18T05:18:25.349Z,99038.96
2019-02-18T05:20:53.115Z,99039.53
2019-02-18T05:23:21.559Z,99041.40
2019-02-18T05:25:49.365Z,99039.53
2019-02-18T05:28:21.906Z,99037.63
2019-02-18T05:30:49.928Z,99033.73
2019-02-18T05:33:17.769Z,99029.39
2019-02-18T05:35:46.026Z,99025.13
2019-02-18T05:38:14.438Z,99026.98
2019-02-18T05:40:43.574Z,99026.98
2019-02-18T05:43:11.752Z,99022.98
2019-02-18T05:45:40.030Z,99020.33
2019-02-18T05:48:08.230Z,99023.09
2019-02-18T05:50:37.203Z,99018.48
2019-02-18T05:53:05.115Z,99022.42
2019-02-18T05:55:33.833Z,99019.56
2019-02-18T05:58:02.429Z,99017.30
2019-02-18T06:00:31.190Z,99015.98
2019-02-18T06:03:00.624Z,99013.33
2019-02-18T06:05:29.816Z,99018.97
2019-02-18T06:07:58.805Z,99016.84
2019-02-18T06:10:27.262Z,99019.26
2019-02-18T06:12:56.143Z,99015.81
2019-02-18T06:15:25.156Z,99015.56
2019-02-18T06:17:54.929Z,99018.16
2019-02-18T06:20:23.983Z,99018.16
2019-02-18T06:22:51.945Z,99016.59
2019-02-18T06:25:20.602Z,99022.15
2019-02-18T06:27:50.993Z,99020.89
2019-02-18T06:30:18.525Z,99024.79
2019-02-18T06:32:47.132Z,99029.26
2019-02-18T06:35:16.541Z,99032.95
2019-02-18T06:37:45.136Z,99033.86
2019-02-18T06:40:13.262Z,99034.70
2019-02-18T06:42:41.393Z,99033.39
2019-02-18T06:45:34.831Z,99037.23
2019-02-18T06:48:15.730Z,99036.30
2019-02-18T06:50:43.798Z,99044.36
2019-02-18T06:53:11.764Z,99045.27
2019-02-18T06:55:41.415Z,99051.78
2019-02-18T06:58:18.568Z,99050.35
2019-02-18T07:01:16.467Z,99043.80
2019-02-18T07:04:02.973Z,99056.34
2019-02-18T07:06:53.282Z,99056.97
2019-02-18T07:09:50.537Z,99041.73
2019-02-18T07:12:16.030Z,99047.16
2019-02-18T07:14:45.265Z,99049.00
2019-02-18T07:17:14.097Z,99050.90
2019-02-18T07:19:43.364Z,99052.72
2019-02-18T07:22:11.792Z,99044.73
2019-02-18T07:24:40.405Z,99040.03
2019-02-18T07:27:09.255Z,99037.63
2019-02-18T07:29:37.684Z,99046.48
2019-02-18T07:32:05.702Z,99046.48
2019-02-18T07:34:34.525Z,99047.34
2019-02-18T07:37:03.241Z,99047.41
2019-02-18T07:39:32.615Z,99047.92
2019-02-18T07:42:00.891Z,99048.72
2019-02-18T07:44:29.635Z,99037.50
2019-02-18T07:46:58.150Z,99043.73
2019-02-18T07:49:27.386Z,99047.82
2019-02-18T07:51:56.319Z,99048.63
2019-02-18T07:54:24.191Z,99050.02
2019-02-18T07:56:53.186Z,99043.35
2019-02-18T07:59:21.480Z,99041.84
2019-02-18T08:01:49.769Z,99042.42
2019-02-18T08:04:17.458Z,99043.18
2019-02-18T08:06:45.653Z,99040.30
2019-02-18T08:09:14.760Z,99038.20
2019-02-18T08:11:43.073Z,99037.45
2019-02-18T08:14:12.574Z,99034.55
2019-02-18T08:16:41.522Z,99039.34
2019-02-18T08:19:09.316Z,99039.38
2019-02-18T08:21:38.555Z,99020.95
2019-02-18T08:24:07.485Z,99020.95
2019-02-18T08:26:36.230Z,99027.42
2019-02-18T08:29:04.170Z,99044.58
2019-02-18T08:31:33.019Z,99036.36
2019-02-18T08:34:02.179Z,99039.61
2019-02-18T08:36:31.078Z,99037.77
2019-02-18T08:39:00.215Z,99035.36
2019-02-18T08:41:28.374Z,99015.15
2019-02-18T08:43:56.874Z,99015.15
2019-02-18T08:46:25.617Z,99026.15
2019-02-18T08:48:54.979Z,99029.67
2019-02-18T08:51:23.319Z,99030.76
2019-02-18T08:53:51.596Z,99031.06
2019-02-18T08:56:19.635Z,99026.80
2019-02-18T08:58:47.571Z,99026.55
2019-02-18T09:01:15.913Z,99028.19
2019-02-18T09:03:43.947Z,99025.00
2019-02-18T09:06:12.813Z,99027.45
2019-02-18T09:08:41.330Z,99027.45
2019-02-18T09:11:09.221Z,99031.19
2019-02-18T09:13:38.153Z,99018.09
2019-02-18T09:16:07.497Z,99028.27
2019-02-18T09:18:35.891Z,99014.91
2019-02-18T09:21:04.092Z,99022.40
2019-02-18T09:23:49.539Z,99012.02
2019-02-18T09:26:17.524Z,99013.34
2019-02-18T09:28:45.545Z,99007.48
2019-02-18T09:31:13.609Z,99005.36
2019-02-18T09:33:41.357Z,99009.38
2019-02-18T09:36:09.329Z,99010.97
2019-02-18T09:38:37.780Z,99006.98
2019-02-18T09:41:06.289Z,99004.86
2019-02-18T09:43:35.230Z,99004.31
2019-02-18T09:46:03.735Z,98982.66
2019-02-18T09:48:31.718Z,98994.44
2019-02-18T09:51:00.388Z,98994.44
2019-02-18T09:53:29.476Z,98993.09
2019-02-18T09:55:57.647Z,98992.31
2019-02-18T09:58:56.086Z,98980.55
2019-02-18T10:01:23.278Z,98980.55
2019-02-18T10:03:50.636Z,98995.24
2019-02-18T10:06:17.986Z,98992.86
2019-02-18T10:08:45.513Z,98989.13
2019-02-18T10:11:13.382Z,98983.78
2019-02-18T10:13:41.230Z,98978.70
2019-02-18T10:16:08.442Z,98978.70
2019-02-18T10:18:37.289Z,98980.84
2019-02-18T10:21:04.828Z,98973.63
2019-02-18T10:23:32.730Z,98976.31
2019-02-18T10:26:00.857Z,98973.88
2019-02-18T10:28:29.027Z,98978.70
2019-02-18T10:30:56.360Z,98976.31
2019-02-18T10:33:24.667Z,98976.28
2019-02-18T10:35:52.684Z,98969.07
2019-02-18T10:38:20.507Z,98968.27
2019-02-18T10:40:48.857Z,98964.84
2019-02-18T10:43:16.089Z,98959.20
2019-02-18T10:45:44.232Z,98956.53
2019-02-18T10:48:12.182Z,98959.49
2019-02-18T10:50:39.986Z,98941.84
2019-02-18T10:53:08.121Z,98941.84
2019-02-18T10:55:36.224Z,98942.93
2019-02-18T10:58:04.057Z,98937.04
2019-02-18T11:00:31.689Z,98918.05
2019-02-18T11:02:59.225Z,98918.05
2019-02-18T11:05:27.113Z,98915.90
2019-02-18T11:07:55.514Z,98915.90
2019-02-18T11:10:23.472Z,98921.79
2019-02-18T11:12:50.723Z,98904.95
2019-02-18T11:15:18.095Z,98904.70
2019-02-18T11:17:46.705Z,98903.34
2019-02-18T11:20:14.066Z,98907.62
2019-02-18T11:22:41.915Z,98895.87
2019-02-18T11:25:09.549Z,98889.44
2019-02-18T11:27:37.116Z,98884.10
2019-02-18T11:30:07.404Z,98885.70
2019-02-18T11:32:35.040Z,98873.41
2019-02-18T11:35:02.277Z,98873.14
2019-02-18T11:37:30.010Z,98858.16
2019-02-18T11:39:57.560Z,98864.83
2019-02-18T11:42:25.323Z,98862.97
2019-02-18T11:44:53.603Z,98853.35
2019-02-18T11:47:21.984Z,98858.70
2019-02-18T11:49:49.700Z,98854.67
2019-02-18T11:52:16.923Z,98810.04
2019-02-18T11:54:44.210Z,98845.59
2019-02-18T11:57:11.827Z,98846.11
2019-02-18T11:59:40.188Z,98842.12
2019-02-18T12:02:07.943Z,98847.19
2019-02-18T12:04:36.240Z,98831.94
2019-02-18T12:07:03.525Z,98816.43
2019-02-18T12:09:31.851Z,98816.43
2019-02-18T12:12:00.323Z,98831.14
2019-02-18T12:14:28.844Z,98823.13
2019-02-18T12:16:57.295Z,98819.37
2019-02-18T12:19:25.146Z,98819.63
2019-02-18T12:21:53.050Z,98805.45
2019-02-18T12:24:21.265Z,98800.62
2019-02-18T12:26:49.417Z,98799.58
2019-02-18T12:29:26.266Z,98796.07
2019-02-18T12:31:46.686Z,98795.02
2019-02-18T12:34:14.745Z,98796.91
2019-02-18T12:36:41.981Z,98791.58
2019-02-18T12:39:13.566Z,98781.44
2019-02-18T12:41:48.144Z,98781.39
2019-02-18T12:44:11.386Z,98784.29
2019-02-18T12:46:40.271Z,98781.07
2019-02-18T12:49:08.604Z,98773.32
2019-02-18T12:51:36.743Z,98773.32
2019-02-18T12:54:05.484Z,98777.34
2019-02-18T12:56:33.485Z,98764.77
2019-02-18T12:59:01.197Z,98759.73
2019-02-18T13:01:29.318Z,98743.78
2019-02-18T13:03:56.840Z,98752.08
2019-02-18T13:06:24.070Z,98741.92
2019-02-18T13:08:52.041Z,98734.45
2019-02-18T13:11:20.085Z,98728.84
2019-02-18T13:13:47.848Z,98728.84
2019-02-18T13:16:30.833Z,98730.13
2019-02-18T13:18:58.078Z,98718.64
2019-02-18T13:21:26.289Z,98723.18
2019-02-18T13:23:53.832Z,98724.78
2019-02-18T13:26:22.376Z,98715.43
2019-02-18T13:28:50.460Z,98724.75
2019-02-18T13:31:17.804Z,98723.16
2019-02-18T13:33:45.938Z,98711.64
2019-02-18T13:36:14.872Z,98715.94
2019-02-18T13:38:42.469Z,98709.25
2019-02-18T13:41:10.232Z,98709.02
2019-02-18T13:43:38.391Z,98701.77
2019-02-18T13:46:06.272Z,98701.77
2019-02-18T13:48:33.834Z,98707.34
2019-02-18T13:51:02.384Z,98703.35
2019-02-18T13:53:29.919Z,98696.38
2019-02-18T13:55:57.159Z,98692.91
2019-02-18T13:58:24.465Z,98694.52
2019-02-18T14:00:52.405Z,98689.98
2019-02-18T14:03:21.348Z,98689.98
2019-02-18T14:05:50.050Z,98685.68
2019-02-18T14:08:19.083Z,98689.67
2019-02-18T14:10:47.902Z,98687.80
2019-02-18T14:13:16.036Z,98680.03
2019-02-18T14:15:44.638Z,98679.47
2019-02-18T14:18:13.426Z,98675.47
2019-02-18T14:20:41.614Z,98670.62
2019-02-18T14:23:09.877Z,98674.89
2019-02-18T14:25:38.459Z,98670.12
2019-02-18T14:28:07.033Z,98672.80
2019-02-18T14:30:35.073Z,98669.03
2019-02-18T14:33:03.113Z,98671.41
2019-02-18T14:35:31.647Z,98673.28
2019-02-18T14:37:59.791Z,98671.92
2019-02-18T14:40:28.223Z,98671.11
2019-02-18T14:42:56.447Z,98666.80
2019-02-18T14:45:24.071Z,98662.79
2019-02-18T14:47:52.298Z,98659.36
2019-02-18T14:50:20.575Z,98662.79
2019-02-18T14:52:48.988Z,98659.86
2019-02-18T14:55:18.126Z,98652.65
2019-02-18T14:57:46.681Z,98657.19
2019-02-18T15:00:20.107Z,98652.37
2019-02-18T15:02:49.490Z,98655.05
2019-02-18T15:05:17.752Z,98648.36
2019-02-18T15:07:46.028Z,98642.73
2019-02-18T15:10:14.440Z,98638.47
2019-02-18T15:12:42.961Z,98633.92
2019-02-18T15:15:11.681Z,98638.19
2019-02-18T15:17:39.905Z,98626.68
2019-02-18T15:20:08.378Z,98626.73
2019-02-18T15:22:36.750Z,98628.36
2019-02-18T15:25:04.957Z,98628.64
2019-02-18T15:27:33.842Z,98627.86
2019-02-18T15:30:02.678Z,98618.24
2019-02-18T15:32:31.715Z,98622.53
2019-02-18T15:35:00.643Z,98623.56
2019-02-18T15:37:29.223Z,98611.78
2019-02-18T15:39:58.007Z,98612.34
2019-02-18T15:42:27.106Z,98615.06
2019-02-18T15:44:56.983Z,98614.00
2019-02-18T15:47:26.906Z,98618.03
2019-02-18T15:49:56.146Z,98604.93
2019-02-18T15:52:25.908Z,98605.73
2019-02-18T15:54:55.162Z,98600.92
2019-02-18T15:57:23.719Z,98595.57
2019-02-18T16:01:58.139Z,98598.53
2019-02-18T16:04:26.402Z,98601.22
2019-02-18T16:06:53.648Z,98596.70
2019-02-18T16:09:20.935Z,98595.11
2019-02-18T16:11:48.637Z,98592.17
2019-02-18T16:14:16.742Z,98592.44
2019-02-18T16:16:44.413Z,98590.31
2019-02-18T16:19:12.810Z,98591.65
2019-02-18T16:21:40.726Z,98587.39
2019-02-18T16:24:08.337Z,98591.69
2019-02-18T16:26:35.915Z,98588.19
2019-02-18T16:29:03.458Z,98594.62
2019-02-18T16:31:31.410Z,98591.16
2019-02-18T16:34:00.430Z,98590.37
2019-02-18T16:36:27.910Z,98593.59
2019-02-18T16:38:55.894Z,98593.59
2019-02-18T16:41:23.775Z,98600.27
2019-02-18T16:43:51.930Z,98598.72
2019-02-18T16:47:05.943Z,98598.98
2019-02-18T16:49:35.007Z,98598.19
2019-02-18T16:52:02.772Z,98602.48
2019-02-18T16:54:32.086Z,98597.41
2019-02-18T16:57:00.407Z,98605.70
2019-02-18T16:59:28.701Z,98601.19
2019-02-18T17:01:56.109Z,98608.91
2019-02-18T17:04:24.237Z,98606.23
2019-02-18T17:06:52.837Z,98608.37
2019-02-18T17:09:21.540Z,98608.37
2019-02-18T17:11:49.660Z,98611.63
2019-02-18T17:14:17.195Z,98612.42
2019-02-18T17:16:44.499Z,98608.97
2019-02-18T17:19:12.428Z,98595.91
2019-02-18T17:21:39.641Z,98595.91
2019-02-18T17:24:07.748Z,98615.63
2019-02-18T17:26:35.546Z,98612.97
2019-02-18T17:29:02.886Z,98603.38
2019-02-18T17:31:30.277Z,98616.73
2019-02-18T17:33:57.826Z,98616.73
2019-02-18T17:36:25.682Z,98617.78
2019-02-18T17:38:54.194Z,98619.93
2019-02-18T17:41:21.832Z,98610.06
2019-02-18T17:43:49.975Z,98611.11
2019-02-18T17:46:18.553Z,98616.73
2019-02-18T17:48:45.886Z,98617.80
2019-02-18T17:51:14.807Z,98621.28
2019-02-18T17:53:42.270Z,98605.27
2019-02-18T17:56:10.342Z,98605.27
2019-02-18T17:58:38.370Z,98623.95
2019-02-18T18:01:20.496Z,98618.06
2019-02-18T18:03:49.663Z,98617.27
2019-02-18T18:06:18.231Z,98617.30
2019-02-18T18:08:47.208Z,98610.59
2019-02-18T18:11:16.588Z,98612.49
2019-02-18T18:13:45.072Z,98615.14
2019-02-18T18:16:13.027Z,98617.52
2019-02-18T18:18:41.118Z,98622.06
2019-02-18T18:21:09.334Z,98617.02
2019-02-18T18:23:37.709Z,98631.95
2019-02-18T18:26:06.674Z,98635.41
2019-02-18T18:28:35.526Z,98629.82
2019-02-18T18:31:04.702Z,98628.47
2019-02-18T18:33:33.543Z,98637.83
2019-02-18T18:36:02.397Z,98636.52
2019-02-18T18:38:31.089Z,98621.03
2019-02-18T18:40:59.292Z,98621.03
2019-02-18T18:43:33.655Z,98640.52
2019-02-18T18:45:58.818Z,98638.90
2019-02-18T18:48:27.196Z,98633.84
2019-02-18T18:50:56.682Z,98637.59
2019-02-18T18:53:24.323Z,98640.25
2019-02-18T18:55:52.680Z,98639.98
2019-02-18T18:58:21.852Z,98634.36
2019-02-18T19:00:50.139Z,98631.70
2019-02-18T19:03:19.562Z,98637.05
2019-02-18T19:05:48.254Z,98635.97
2019-02-18T19:08:16.653Z,98637.04
2019-02-18T19:10:45.039Z,98637.04
2019-02-18T19:13:13.217Z,98638.64
2019-02-18T19:15:49.255Z,98642.66
2019-02-18T19:18:12.568Z,98641.86
2019-02-18T19:20:40.769Z,98640.78
2019-02-18T19:23:09.360Z,98640.77
2019-02-18T19:25:38.524Z,98645.84
2019-02-18T19:28:09.565Z,98641.56
2019-02-18T19:30:38.285Z,98586.88
2019-02-18T19:33:08.604Z,98645.31
2019-02-18T19:35:36.711Z,98647.70
2019-02-18T19:38:04.729Z,98648.23
2019-02-18T19:40:33.702Z,98649.03
2019-02-18T19:43:02.387Z,98649.84
2019-02-18T19:45:30.710Z,98649.84
2019-02-18T19:47:59.488Z,98649.84
2019-02-18T19:50:28.922Z,98653.30
2019-02-18T19:52:58.170Z,98658.91
2019-02-18T19:55:26.363Z,98649.04
2019-02-18T19:57:55.631Z,98658.67
2019-02-18T20:00:24.851Z,98656.54
2019-02-18T20:02:53.877Z,98658.39
2019-02-18T20:05:22.827Z,98649.83
2019-02-18T20:07:53.093Z,98657.56
2019-02-18T20:10:22.590Z,98656.52
2019-02-18T20:12:51.688Z,98659.44
2019-02-18T20:15:20.392Z,98659.44
2019-02-18T20:17:49.380Z,98667.17
2019-02-18T20:20:18.135Z,98666.14
2019-02-18T20:22:46.281Z,98666.63
2019-02-18T20:25:14.431Z,98665.04
2019-02-18T20:27:42.443Z,98668.49
2019-02-18T20:30:11.159Z,98666.88
2019-02-18T20:32:39.141Z,98671.97
2019-02-18T20:35:08.523Z,98668.20
2019-02-18T20:37:37.015Z,98669.00
2019-02-18T20:40:05.771Z,98670.38
2019-02-18T20:42:34.127Z,98678.38
2019-02-18T20:45:02.090Z,98673.32
2019-02-18T20:47:30.146Z,98673.84
2019-02-18T20:49:58.551Z,98675.20
2019-02-18T20:52:26.596Z,98675.20
2019-02-18T20:54:55.522Z,98672.52
2019-02-18T20:57:24.127Z,98684.25
2019-02-18T20:59:53.795Z,98683.20
2019-02-18T21:02:21.943Z,98680.27
2019-02-18T21:04:50.269Z,98668.77
2019-02-18T21:07:18.644Z,98665.04
2019-02-18T21:09:47.240Z,98668.22
2019-02-18T21:12:19.855Z,98667.97
2019-02-18T21:14:46.981Z,98669.55
2019-02-18T21:17:16.116Z,98679.47
2019-02-18T21:19:46.448Z,98677.56
2019-02-18T21:22:14.525Z,98677.29
2019-02-18T21:24:44.279Z,98683.71
2019-02-18T21:27:13.256Z,98685.84
2019-02-18T21:29:42.073Z,98682.91
2019-02-18T21:32:10.750Z,98682.63
2019-02-18T21:34:39.427Z,98682.40
2019-02-18T21:37:07.850Z,98682.66
2019-02-18T21:39:35.957Z,98690.95
2019-02-18T21:42:03.828Z,98694.98
2019-02-18T21:44:32.969Z,98691.77
2019-02-18T21:47:01.618Z,98689.91
2019-02-18T21:49:29.348Z,98698.47
2019-02-18T21:51:57.668Z,98655.48
2019-02-18T21:54:26.715Z,98697.09
2019-02-18T21:56:54.587Z,98694.96
2019-02-18T21:59:22.943Z,98697.91
2019-02-18T22:01:51.890Z,98699.48
2019-02-18T22:04:20.147Z,98708.05
2019-02-18T22:06:48.337Z,98704.84
2019-02-18T22:09:16.496Z,98708.32
2019-02-18T22:11:44.765Z,98699.50
2019-02-18T22:14:13.548Z,98700.05
2019-02-18T22:16:41.770Z,98706.98
2019-02-18T22:19:10.029Z,98705.66
2019-02-18T22:21:38.410Z,98705.66
2019-02-18T22:24:07.107Z,98704.59
2019-02-18T22:26:37.005Z,98706.73
2019-02-18T22:29:06.798Z,98708.31
2019-02-18T22:31:37.605Z,98714.73
2019-02-18T22:34:08.201Z,98711.51
2019-02-18T22:36:37.959Z,98717.66
2019-02-18T22:39:07.052Z,98718.98
2019-02-18T22:41:35.638Z,98714.45
2019-02-18T22:44:03.962Z,98716.05
2019-02-18T22:46:33.823Z,98655.20
2019-02-18T22:49:03.503Z,98708.86
2019-02-18T22:51:33.258Z,98707.25
2019-02-18T22:54:09.854Z,98712.86
2019-02-18T22:56:40.700Z,98718.17
2019-02-18T22:59:10.029Z,98728.59
2019-02-18T23:01:38.442Z,98725.38
2019-02-18T23:04:07.224Z,98716.59
2019-02-18T23:06:35.857Z,98732.31
2019-02-18T23:09:06.807Z,98730.99
2019-02-18T23:11:34.904Z,98734.20
2019-02-18T23:14:04.121Z,98740.58
2019-02-18T23:16:33.516Z,98740.58
2019-02-18T23:19:02.593Z,98742.16
2019-02-18T23:21:30.952Z,98731.24
2019-02-18T23:23:59.249Z,98747.80
2019-02-18T23:26:28.458Z,98757.09
2019-02-18T23:28:58.945Z,98760.58
2019-02-18T23:31:27.520Z,98756.32
2019-02-18T23:33:56.082Z,98758.70
2019-02-18T23:36:24.361Z,98753.63
2019-02-18T23:38:52.865Z,98753.36
2019-02-18T23:41:21.248Z,98763.98
2019-02-18T23:43:49.138Z,98761.86
2019-02-18T23:46:17.326Z,98757.05
2019-02-18T23:48:45.450Z,98761.02
2019-02-18T23:51:13.826Z,98761.57
2019-02-18T23:53:42.039Z,98754.61
2019-02-18T23:56:10.321Z,98753.54
2019-02-18T23:58:39.107Z,98750.58
